sensor_id;sensor_type;location;lat;lon;timestamp;pressure;altitude;pressure_sealevel;temperature;humidity
35435;BME280;21556;55.782;37.528;2023-01-26T00:00:55;100405.22;;;-0.28;100.00
35435;BME280;21556;55.782;37.528;2023-01-26T00:03:22;100408.84;;;-0.50;100.00
35435;BME280;21556;55.782;37.528;2023-01-26T00:05:48;100390.22;;;-0.45;100.00
35435;BME280;21556;55.782;37.528;2023-01-26T00:08:14;100401.53;;;-0.55;100.00
35435;BME280;21556;55.782;37.528;2023-01-26T00:10:41;100398.31;;;-0.64;100.00
35435;BME280;21556;55.782;37.528;2023-01-26T00:13:18;100407.03;;;-0.39;100.00
35435;BME280;21556;55.782;37.528;2023-01-26T00:15:44;100403.34;;;-0.54;100.00
35435;BME280;21556;55.782;37.528;2023-01-26T00:18:10;100409.16;;;-0.45;100.00
35435;BME280;21556;55.782;37.528;2023-01-26T00:20:36;100403.09;;;-0.45;100.00
35435;BME280;21556;55.782;37.528;2023-01-26T00:23:02;100392.53;;;-0.37;100.00
35435;BME280;21556;55.782;37.528;2023-01-26T00:25:28;100402.47;;;-0.78;100.00
35435;BME280;21556;55.782;37.528;2023-01-26T00:27:55;100409.63;;;-0.62;100.00
35435;BME280;21556;55.782;37.528;2023-01-26T00:30:22;100413.53;;;-0.56;100.00
35435;BME280;21556;55.782;37.528;2023-01-26T00:32:49;100406.47;;;-0.46;100.00
35435;BME280;21556;55.782;37.528;2023-01-26T00:35:15;100401.47;;;-0.92;100.00
35435;BME280;21556;55.782;37.528;2023-01-26T00:37:41;100408.25;;;-0.45;100.00
35435;BME280;21556;55.782;37.528;2023-01-26T00:40:08;100405.25;;;-0.40;100.00
35435;BME280;21556;55.782;37.528;2023-01-26T00:42:35;100397.06;;;-0.46;100.00
35435;BME280;21556;55.782;37.528;2023-01-26T00:45:01;100400.66;;;-0.56;100.00
35435;BME280;21556;55.782;37.528;2023-01-26T00:47:30;100396.75;;;-0.51;100.00
35435;BME280;21556;55.782;37.528;2023-01-26T00:49:56;100404.47;;;-0.62;100.00
35435;BME280;21556;55.782;37.528;2023-01-26T00:52:21;100402.38;;;-0.68;100.00
35435;BME280;21556;55.782;37.528;2023-01-26T00:54:49;100400.91;;;-1.00;100.00
35435;BME280;21556;55.782;37.528;2023-01-26T00:57:15;100399.25;;;-0.76;100.00
35435;BME280;21556;55.782;37.528;2023-01-26T00:59:40;100397.28;;;-0.55;100.00
35435;BME280;21556;55.782;37.528;2023-01-26T01:02:06;100392.59;;;-0.60;100.00
35435;BME280;21556;55.782;37.528;2023-01-26T01:04:32;100393.84;;;-0.67;100.00
35435;BME280;21556;55.782;37.528;2023-01-26T01:06:59;100389.69;;;-0.53;100.00
35435;BME280;21556;55.782;37.528;2023-01-26T01:09:26;100400.13;;;-0.75;100.00
35435;BME280;21556;55.782;37.528;2023-01-26T01:11:52;100392.88;;;-0.44;100.00
35435;BME280;21556;55.782;37.528;2023-01-26T01:14:18;100389.31;;;-0.46;100.00
35435;BME280;21556;55.782;37.528;2023-01-26T01:16:44;100387.63;;;-0.45;100.00
35435;BME280;21556;55.782;37.528;2023-01-26T01:19:14;100380.44;;;-0.38;100.00
35435;BME280;21556;55.782;37.528;2023-01-26T01:21:41;100395.78;;;-0.76;100.00
35435;BME280;21556;55.782;37.528;2023-01-26T01:24:10;100390.25;;;-0.57;100.00
35435;BME280;21556;55.782;37.528;2023-01-26T01:26:37;100393.38;;;-0.50;100.00
35435;BME280;21556;55.782;37.528;2023-01-26T01:29:03;100383.41;;;-0.57;100.00
35435;BME280;21556;55.782;37.528;2023-01-26T01:31:29;100387.22;;;-0.63;100.00
35435;BME280;21556;55.782;37.528;2023-01-26T01:33:56;100398.41;;;-0.51;100.00
35435;BME280;21556;55.782;37.528;2023-01-26T01:36:22;100381.91;;;-0.41;100.00
35435;BME280;21556;55.782;37.528;2023-01-26T01:38:51;100379.03;;;-0.69;100.00
35435;BME280;21556;55.782;37.528;2023-01-26T01:41:19;100370.88;;;-0.27;100.00
35435;BME280;21556;55.782;37.528;2023-01-26T01:43:47;100366.56;;;-0.40;100.00
35435;BME280;21556;55.782;37.528;2023-01-26T01:46:49;100364.41;;;-0.34;100.00
35435;BME280;21556;55.782;37.528;2023-01-26T01:49:19;100362.31;;;-0.51;100.00
35435;BME280;21556;55.782;37.528;2023-01-26T01:54:28;100382.16;;;-0.62;100.00
35435;BME280;21556;55.782;37.528;2023-01-26T01:56:57;100371.78;;;-0.75;100.00
35435;BME280;21556;55.782;37.528;2023-01-26T01:59:25;100372.66;;;-0.63;100.00
35435;BME280;21556;55.782;37.528;2023-01-26T02:01:52;100365.09;;;-0.48;100.00
35435;BME280;21556;55.782;37.528;2023-01-26T02:04:21;100359.41;;;-0.56;100.00
35435;BME280;21556;55.782;37.528;2023-01-26T02:06:51;100380.84;;;-0.68;100.00
35435;BME280;21556;55.782;37.528;2023-01-26T02:09:22;100373.88;;;-0.69;100.00
35435;BME280;21556;55.782;37.528;2023-01-26T02:12:11;100365.00;;;-0.50;100.00
35435;BME280;21556;55.782;37.528;2023-01-26T02:14:39;100350.69;;;-0.21;100.00
35435;BME280;21556;55.782;37.528;2023-01-26T02:17:26;100356.84;;;-0.56;100.00
35435;BME280;21556;55.782;37.528;2023-01-26T02:20:19;100355.00;;;-0.08;100.00
35435;BME280;21556;55.782;37.528;2023-01-26T02:27:59;100339.28;;;-0.25;100.00
35435;BME280;21556;55.782;37.528;2023-01-26T02:30:27;100337.63;;;-0.36;100.00
35435;BME280;21556;55.782;37.528;2023-01-26T02:32:54;100339.06;;;-0.64;100.00
35435;BME280;21556;55.782;37.528;2023-01-26T02:35:20;100342.44;;;-0.65;100.00
35435;BME280;21556;55.782;37.528;2023-01-26T02:37:46;100328.88;;;-0.38;100.00
35435;BME280;21556;55.782;37.528;2023-01-26T02:40:53;100328.81;;;-0.26;100.00
35435;BME280;21556;55.782;37.528;2023-01-26T02:43:22;100328.31;;;-0.34;100.00
35435;BME280;21556;55.782;37.528;2023-01-26T02:45:48;100328.66;;;-0.41;100.00
35435;BME280;21556;55.782;37.528;2023-01-26T02:48:14;100342.91;;;-0.83;100.00
35435;BME280;21556;55.782;37.528;2023-01-26T02:51:02;100334.22;;;-0.60;100.00
35435;BME280;21556;55.782;37.528;2023-01-26T02:53:29;100335.84;;;-0.85;100.00
35435;BME280;21556;55.782;37.528;2023-01-26T02:55:55;100320.97;;;-0.53;100.00
35435;BME280;21556;55.782;37.528;2023-01-26T02:58:21;100320.31;;;-0.25;100.00
35435;BME280;21556;55.782;37.528;2023-01-26T03:00:47;100326.66;;;-0.45;100.00
35435;BME280;21556;55.782;37.528;2023-01-26T03:03:15;100318.34;;;-0.41;100.00
35435;BME280;21556;55.782;37.528;2023-01-26T03:05:43;100309.09;;;-0.26;100.00
35435;BME280;21556;55.782;37.528;2023-01-26T03:08:09;100314.22;;;-0.39;100.00
35435;BME280;21556;55.782;37.528;2023-01-26T03:10:36;100316.56;;;-0.42;100.00
35435;BME280;21556;55.782;37.528;2023-01-26T03:13:02;100312.09;;;-0.19;100.00
35435;BME280;21556;55.782;37.528;2023-01-26T03:15:28;100307.44;;;-0.25;100.00
35435;BME280;21556;55.782;37.528;2023-01-26T03:18:19;100304.72;;;-0.27;100.00
35435;BME280;21556;55.782;37.528;2023-01-26T03:21:12;100297.44;;;-0.20;100.00
35435;BME280;21556;55.782;37.528;2023-01-26T03:23:57;100309.19;;;-0.49;100.00
35435;BME280;21556;55.782;37.528;2023-01-26T03:26:42;100300.19;;;-0.67;100.00
35435;BME280;21556;55.782;37.528;2023-01-26T03:29:26;100288.31;;;-0.77;100.00
35435;BME280;21556;55.782;37.528;2023-01-26T03:31:55;100299.34;;;-0.55;100.00
35435;BME280;21556;55.782;37.528;2023-01-26T03:34:24;100298.25;;;-0.33;100.00
35435;BME280;21556;55.782;37.528;2023-01-26T03:36:50;100305.84;;;-0.23;100.00
35435;BME280;21556;55.782;37.528;2023-01-26T03:39:17;100300.25;;;-0.29;100.00
35435;BME280;21556;55.782;37.528;2023-01-26T03:42:03;100318.50;;;-0.51;100.00
35435;BME280;21556;55.782;37.528;2023-01-26T03:44:48;100309.34;;;-0.59;100.00
35435;BME280;21556;55.782;37.528;2023-01-26T03:47:35;100312.66;;;-0.49;100.00
35435;BME280;21556;55.782;37.528;2023-01-26T03:50:21;100301.19;;;-0.40;100.00
35435;BME280;21556;55.782;37.528;2023-01-26T03:53:16;100305.81;;;-0.36;100.00
35435;BME280;21556;55.782;37.528;2023-01-26T03:56:01;100309.28;;;-0.47;100.00
35435;BME280;21556;55.782;37.528;2023-01-26T03:58:53;100309.94;;;-0.38;100.00
35435;BME280;21556;55.782;37.528;2023-01-26T04:01:23;100318.72;;;-0.23;100.00
35435;BME280;21556;55.782;37.528;2023-01-26T04:03:56;100313.56;;;-0.48;100.00
35435;BME280;21556;55.782;37.528;2023-01-26T04:06:43;100310.97;;;-0.36;100.00
35435;BME280;21556;55.782;37.528;2023-01-26T04:09:30;100308.22;;;-0.63;100.00
35435;BME280;21556;55.782;37.528;2023-01-26T04:11:57;100320.44;;;-0.60;100.00
35435;BME280;21556;55.782;37.528;2023-01-26T04:14:23;100318.13;;;-0.44;100.00
35435;BME280;21556;55.782;37.528;2023-01-26T04:17:08;100310.75;;;-0.39;100.00
35435;BME280;21556;55.782;37.528;2023-01-26T04:19:53;100318.34;;;-0.41;100.00
35435;BME280;21556;55.782;37.528;2023-01-26T04:22:41;100311.50;;;-0.40;100.00
35435;BME280;21556;55.782;37.528;2023-01-26T04:25:13;100313.47;;;-0.50;100.00
35435;BME280;21556;55.782;37.528;2023-01-26T04:27:40;100315.19;;;-0.74;100.00
35435;BME280;21556;55.782;37.528;2023-01-26T04:30:09;100313.16;;;-0.54;100.00
35435;BME280;21556;55.782;37.528;2023-01-26T04:32:36;100311.25;;;-0.57;100.00
35435;BME280;21556;55.782;37.528;2023-01-26T04:35:05;100318.47;;;-0.39;100.00
35435;BME280;21556;55.782;37.528;2023-01-26T04:37:33;100310.75;;;-0.51;100.00
35435;BME280;21556;55.782;37.528;2023-01-26T04:39:59;100303.94;;;-0.26;100.00
35435;BME280;21556;55.782;37.528;2023-01-26T04:42:29;100308.75;;;-0.55;100.00
35435;BME280;21556;55.782;37.528;2023-01-26T04:45:01;100299.50;;;-0.15;100.00
35435;BME280;21556;55.782;37.528;2023-01-26T04:47:30;100313.13;;;-0.17;100.00
35435;BME280;21556;55.782;37.528;2023-01-26T04:49:56;100311.88;;;-0.22;100.00
35435;BME280;21556;55.782;37.528;2023-01-26T04:52:23;100309.66;;;-0.30;100.00
35435;BME280;21556;55.782;37.528;2023-01-26T04:54:49;100313.25;;;-0.53;100.00
35435;BME280;21556;55.782;37.528;2023-01-26T04:57:17;100304.63;;;-0.28;100.00
35435;BME280;21556;55.782;37.528;2023-01-26T04:59:48;100298.44;;;-0.43;100.00
35435;BME280;21556;55.782;37.528;2023-01-26T05:02:14;100293.66;;;-0.37;100.00
35435;BME280;21556;55.782;37.528;2023-01-26T05:04:42;100291.59;;;-0.18;100.00
35435;BME280;21556;55.782;37.528;2023-01-26T05:07:09;100301.41;;;-0.37;100.00
35435;BME280;21556;55.782;37.528;2023-01-26T05:09:36;100303.03;;;-0.26;100.00
35435;BME280;21556;55.782;37.528;2023-01-26T05:12:25;100301.03;;;-0.30;100.00
35435;BME280;21556;55.782;37.528;2023-01-26T05:15:19;100305.59;;;-0.51;100.00
35435;BME280;21556;55.782;37.528;2023-01-26T05:17:57;100297.28;;;-0.72;100.00
35435;BME280;21556;55.782;37.528;2023-01-26T05:20:57;100293.22;;;-0.07;100.00
35435;BME280;21556;55.782;37.528;2023-01-26T05:23:25;100289.25;;;-0.27;100.00
35435;BME280;21556;55.782;37.528;2023-01-26T05:26:10;100293.25;;;-0.18;100.00
35435;BME280;21556;55.782;37.528;2023-01-26T05:28:54;100291.69;;;-0.16;100.00
35435;BME280;21556;55.782;37.528;2023-01-26T05:31:21;100289.53;;;-0.10;100.00
35435;BME280;21556;55.782;37.528;2023-01-26T05:33:47;100294.75;;;-0.47;100.00
35435;BME280;21556;55.782;37.528;2023-01-26T05:36:19;100285.34;;;-0.58;100.00
35435;BME280;21556;55.782;37.528;2023-01-26T05:38:45;100291.38;;;-0.46;100.00
35435;BME280;21556;55.782;37.528;2023-01-26T05:41:12;100292.00;;;-0.37;100.00
35435;BME280;21556;55.782;37.528;2023-01-26T05:44:01;100296.25;;;-0.37;100.00
35435;BME280;21556;55.782;37.528;2023-01-26T05:46:41;100301.09;;;-0.17;100.00
35435;BME280;21556;55.782;37.528;2023-01-26T05:49:06;100304.84;;;-0.25;100.00
35435;BME280;21556;55.782;37.528;2023-01-26T05:51:33;100302.22;;;-0.13;100.00
35435;BME280;21556;55.782;37.528;2023-01-26T05:54:00;100295.06;;;-0.42;100.00
35435;BME280;21556;55.782;37.528;2023-01-26T05:56:26;100302.44;;;-0.35;100.00
35435;BME280;21556;55.782;37.528;2023-01-26T05:58:58;100285.63;;;-0.42;100.00
35435;BME280;21556;55.782;37.528;2023-01-26T06:01:24;100290.44;;;-0.35;100.00
35435;BME280;21556;55.782;37.528;2023-01-26T06:03:57;100294.19;;;-0.30;100.00
35435;BME280;21556;55.782;37.528;2023-01-26T06:06:26;100292.94;;;-0.48;100.00
35435;BME280;21556;55.782;37.528;2023-01-26T06:09:00;100287.19;;;-0.19;100.00
35435;BME280;21556;55.782;37.528;2023-01-26T06:11:32;100285.28;;;-0.35;100.00
35435;BME280;21556;55.782;37.528;2023-01-26T06:14:07;100289.53;;;-0.10;100.00
35435;BME280;21556;55.782;37.528;2023-01-26T06:16:33;100284.03;;;-0.15;100.00
35435;BME280;21556;55.782;37.528;2023-01-26T06:19:00;100280.63;;;-0.27;100.00
35435;BME280;21556;55.782;37.528;2023-01-26T06:21:26;100281.50;;;-0.02;100.00
35435;BME280;21556;55.782;37.528;2023-01-26T06:23:53;100280.69;;;-0.39;100.00
35435;BME280;21556;55.782;37.528;2023-01-26T06:26:19;100276.03;;;-0.06;100.00
35435;BME280;21556;55.782;37.528;2023-01-26T06:28:46;100275.56;;;-0.26;100.00
35435;BME280;21556;55.782;37.528;2023-01-26T06:31:13;100278.94;;;-0.27;100.00
35435;BME280;21556;55.782;37.528;2023-01-26T06:33:40;100269.47;;;-0.14;100.00
35435;BME280;21556;55.782;37.528;2023-01-26T06:36:09;100262.97;;;0.04;100.00
35435;BME280;21556;55.782;37.528;2023-01-26T06:38:35;100264.19;;;-0.16;100.00
35435;BME280;21556;55.782;37.528;2023-01-26T06:41:03;100260.50;;;0.06;100.00
35435;BME280;21556;55.782;37.528;2023-01-26T06:43:30;100265.47;;;-0.22;100.00
35435;BME280;21556;55.782;37.528;2023-01-26T06:45:56;100266.19;;;-0.12;100.00
35435;BME280;21556;55.782;37.528;2023-01-26T06:48:29;100262.50;;;-0.15;100.00
35435;BME280;21556;55.782;37.528;2023-01-26T06:50:56;100268.06;;;0.16;100.00
35435;BME280;21556;55.782;37.528;2023-01-26T06:53:25;100271.91;;;0.09;100.00
35435;BME280;21556;55.782;37.528;2023-01-26T06:56:12;100267.66;;;-0.15;100.00
35435;BME280;21556;55.782;37.528;2023-01-26T06:59:07;100265.06;;;-0.04;100.00
35435;BME280;21556;55.782;37.528;2023-01-26T07:01:49;100266.66;;;0.08;100.00
35435;BME280;21556;55.782;37.528;2023-01-26T07:04:15;100259.09;;;-0.03;100.00
35435;BME280;21556;55.782;37.528;2023-01-26T07:06:41;100256.97;;;-0.08;100.00
35435;BME280;21556;55.782;37.528;2023-01-26T07:09:08;100262.28;;;0.07;100.00
35435;BME280;21556;55.782;37.528;2023-01-26T07:11:35;100263.25;;;-0.05;100.00
35435;BME280;21556;55.782;37.528;2023-01-26T07:14:01;100257.38;;;-0.40;100.00
35435;BME280;21556;55.782;37.528;2023-01-26T07:16:27;100264.44;;;-0.38;100.00
35435;BME280;21556;55.782;37.528;2023-01-26T07:18:53;100256.63;;;0.12;100.00
35435;BME280;21556;55.782;37.528;2023-01-26T07:21:21;100253.28;;;0.27;100.00
35435;BME280;21556;55.782;37.528;2023-01-26T07:23:48;100289.16;;;0.10;100.00
35435;BME280;21556;55.782;37.528;2023-01-26T07:26:17;100265.22;;;-0.01;100.00
35435;BME280;21556;55.782;37.528;2023-01-26T07:28:42;100260.16;;;0.26;100.00
35435;BME280;21556;55.782;37.528;2023-01-26T07:31:10;100264.16;;;0.09;100.00
35435;BME280;21556;55.782;37.528;2023-01-26T07:33:36;100262.78;;;0.14;100.00
35435;BME280;21556;55.782;37.528;2023-01-26T07:36:02;100254.06;;;0.12;100.00
35435;BME280;21556;55.782;37.528;2023-01-26T07:38:29;100256.28;;;0.33;100.00
35435;BME280;21556;55.782;37.528;2023-01-26T07:40:56;100259.94;;;0.23;100.00
35435;BME280;21556;55.782;37.528;2023-01-26T07:43:22;100258.66;;;0.30;100.00
35435;BME280;21556;55.782;37.528;2023-01-26T07:45:52;100268.19;;;0.31;100.00
35435;BME280;21556;55.782;37.528;2023-01-26T07:48:20;100258.84;;;0.19;100.00
35435;BME280;21556;55.782;37.528;2023-01-26T07:50:48;100262.00;;;0.29;100.00
35435;BME280;21556;55.782;37.528;2023-01-26T07:53:15;100258.88;;;-0.06;100.00
35435;BME280;21556;55.782;37.528;2023-01-26T07:55:45;100254.69;;;0.35;100.00
35435;BME280;21556;55.782;37.528;2023-01-26T07:58:11;100263.94;;;0.44;100.00
35435;BME280;21556;55.782;37.528;2023-01-26T08:00:38;100258.94;;;0.34;100.00
35435;BME280;21556;55.782;37.528;2023-01-26T08:03:04;100250.22;;;0.59;100.00
35435;BME280;21556;55.782;37.528;2023-01-26T08:05:31;100244.16;;;0.32;100.00
35435;BME280;21556;55.782;37.528;2023-01-26T08:08:00;100237.81;;;0.27;100.00
35435;BME280;21556;55.782;37.528;2023-01-26T08:10:29;100243.88;;;0.40;100.00
35435;BME280;21556;55.782;37.528;2023-01-26T08:12:59;100245.25;;;0.48;100.00
35435;BME280;21556;55.782;37.528;2023-01-26T08:15:26;100242.47;;;0.19;100.00
35435;BME280;21556;55.782;37.528;2023-01-26T08:17:55;100239.97;;;0.20;100.00
35435;BME280;21556;55.782;37.528;2023-01-26T08:20:21;100238.38;;;0.36;100.00
35435;BME280;21556;55.782;37.528;2023-01-26T08:22:47;100228.25;;;0.12;100.00
35435;BME280;21556;55.782;37.528;2023-01-26T08:25:13;100229.75;;;0.09;100.00
35435;BME280;21556;55.782;37.528;2023-01-26T08:27:39;100225.44;;;-0.04;100.00
35435;BME280;21556;55.782;37.528;2023-01-26T08:30:05;100226.38;;;0.23;100.00
35435;BME280;21556;55.782;37.528;2023-01-26T08:32:31;100227.03;;;0.07;100.00
35435;BME280;21556;55.782;37.528;2023-01-26T08:34:57;100236.50;;;0.20;100.00
35435;BME280;21556;55.782;37.528;2023-01-26T08:37:23;100224.00;;;0.26;100.00
35435;BME280;21556;55.782;37.528;2023-01-26T08:39:49;100222.13;;;0.63;100.00
35435;BME280;21556;55.782;37.528;2023-01-26T08:42:15;100230.06;;;0.27;100.00
35435;BME280;21556;55.782;37.528;2023-01-26T08:44:40;100229.66;;;0.20;100.00
35435;BME280;21556;55.782;37.528;2023-01-26T08:47:09;100224.69;;;0.50;100.00
35435;BME280;21556;55.782;37.528;2023-01-26T08:49:35;100227.09;;;0.60;100.00
35435;BME280;21556;55.782;37.528;2023-01-26T08:52:01;100220.53;;;0.65;100.00
35435;BME280;21556;55.782;37.528;2023-01-26T08:54:27;100224.72;;;0.37;100.00
35435;BME280;21556;55.782;37.528;2023-01-26T08:56:57;100215.84;;;0.60;100.00
35435;BME280;21556;55.782;37.528;2023-01-26T08:59:24;100211.31;;;0.56;100.00
35435;BME280;21556;55.782;37.528;2023-01-26T09:01:50;100217.03;;;0.25;100.00
35435;BME280;21556;55.782;37.528;2023-01-26T09:04:15;100211.38;;;0.57;100.00
35435;BME280;21556;55.782;37.528;2023-01-26T09:06:41;100209.59;;;0.43;100.00
35435;BME280;21556;55.782;37.528;2023-01-26T09:09:07;100202.25;;;0.62;100.00
35435;BME280;21556;55.782;37.528;2023-01-26T09:11:38;100218.53;;;0.35;100.00
35435;BME280;21556;55.782;37.528;2023-01-26T09:14:04;100212.38;;;0.46;100.00
35435;BME280;21556;55.782;37.528;2023-01-26T09:16:30;100202.94;;;0.46;100.00
35435;BME280;21556;55.782;37.528;2023-01-26T09:18:56;100207.81;;;0.42;100.00
35435;BME280;21556;55.782;37.528;2023-01-26T09:21:22;100200.56;;;0.36;100.00
35435;BME280;21556;55.782;37.528;2023-01-26T09:23:48;100197.09;;;0.09;100.00
35435;BME280;21556;55.782;37.528;2023-01-26T09:26:14;100204.13;;;0.25;100.00
35435;BME280;21556;55.782;37.528;2023-01-26T09:28:40;100205.13;;;0.14;100.00
35435;BME280;21556;55.782;37.528;2023-01-26T09:31:08;100208.31;;;0.50;100.00
35435;BME280;21556;55.782;37.528;2023-01-26T09:33:39;100202.47;;;0.39;100.00
35435;BME280;21556;55.782;37.528;2023-01-26T09:36:07;100206.63;;;0.77;100.00
35435;BME280;21556;55.782;37.528;2023-01-26T09:38:33;100200.13;;;0.83;100.00
35435;BME280;21556;55.782;37.528;2023-01-26T09:51:42;100193.63;;;0.62;100.00
35435;BME280;21556;55.782;37.528;2023-01-26T09:54:40;100185.16;;;0.64;100.00
35435;BME280;21556;55.782;37.528;2023-01-26T09:57:37;100193.19;;;0.82;100.00
35435;BME280;21556;55.782;37.528;2023-01-26T10:00:07;100185.75;;;0.74;100.00
35435;BME280;21556;55.782;37.528;2023-01-26T10:05:15;100191.47;;;0.83;100.00
35435;BME280;21556;55.782;37.528;2023-01-26T10:07:57;100187.03;;;0.80;100.00
35435;BME280;21556;55.782;37.528;2023-01-26T10:10:33;100180.19;;;0.81;100.00
35435;BME280;21556;55.782;37.528;2023-01-26T10:13:01;100189.91;;;0.85;100.00
35435;BME280;21556;55.782;37.528;2023-01-26T10:15:37;100183.66;;;0.81;100.00
35435;BME280;21556;55.782;37.528;2023-01-26T10:18:14;100186.72;;;0.89;100.00
35435;BME280;21556;55.782;37.528;2023-01-26T10:20:46;100187.88;;;0.94;100.00
35435;BME280;21556;55.782;37.528;2023-01-26T10:23:21;100185.44;;;0.82;100.00
35435;BME280;21556;55.782;37.528;2023-01-26T10:25:50;100180.31;;;0.97;100.00
35435;BME280;21556;55.782;37.528;2023-01-26T10:28:37;100182.25;;;0.86;100.00
35435;BME280;21556;55.782;37.528;2023-01-26T10:31:28;100182.06;;;1.11;100.00
35435;BME280;21556;55.782;37.528;2023-01-26T10:37:33;100173.00;;;0.90;100.00
35435;BME280;21556;55.782;37.528;2023-01-26T10:40:02;100174.69;;;0.89;100.00
35435;BME280;21556;55.782;37.528;2023-01-26T10:42:33;100175.03;;;0.67;100.00
35435;BME280;21556;55.782;37.528;2023-01-26T10:45:01;100159.59;;;0.82;100.00
35435;BME280;21556;55.782;37.528;2023-01-26T10:47:30;100157.81;;;0.81;100.00
35435;BME280;21556;55.782;37.528;2023-01-26T10:50:21;100155.72;;;0.76;100.00
35435;BME280;21556;55.782;37.528;2023-01-26T10:53:02;100146.53;;;0.94;100.00
35435;BME280;21556;55.782;37.528;2023-01-26T10:55:30;100148.22;;;0.93;100.00
35435;BME280;21556;55.782;37.528;2023-01-26T10:57:57;100148.63;;;1.00;100.00
35435;BME280;21556;55.782;37.528;2023-01-26T11:00:33;100142.75;;;1.02;100.00
35435;BME280;21556;55.782;37.528;2023-01-26T11:05:39;100134.34;;;0.91;100.00
35435;BME280;21556;55.782;37.528;2023-01-26T11:08:34;100133.25;;;0.88;100.00
35435;BME280;21556;55.782;37.528;2023-01-26T11:11:01;100128.38;;;0.92;100.00
35435;BME280;21556;55.782;37.528;2023-01-26T11:13:28;100124.13;;;0.80;100.00
35435;BME280;21556;55.782;37.528;2023-01-26T11:16:19;100131.16;;;0.95;100.00
35435;BME280;21556;55.782;37.528;2023-01-26T11:19:11;100129.06;;;0.90;100.00
35435;BME280;21556;55.782;37.528;2023-01-26T11:22:01;100124.25;;;0.81;100.00
35435;BME280;21556;55.782;37.528;2023-01-26T11:28:07;100114.00;;;0.55;100.00
35435;BME280;21556;55.782;37.528;2023-01-26T11:33:02;100119.66;;;0.36;100.00
35435;BME280;21556;55.782;37.528;2023-01-26T11:35:55;100127.06;;;0.58;100.00
35435;BME280;21556;55.782;37.528;2023-01-26T11:38:35;100126.78;;;0.66;100.00
35435;BME280;21556;55.782;37.528;2023-01-26T11:44:01;100118.06;;;0.51;100.00
35435;BME280;21556;55.782;37.528;2023-01-26T11:52:17;100110.75;;;0.31;100.00
35435;BME280;21556;55.782;37.528;2023-01-26T11:55:09;100106.94;;;0.52;100.00
35435;BME280;21556;55.782;37.528;2023-01-26T11:57:43;100113.25;;;0.29;100.00
35435;BME280;21556;55.782;37.528;2023-01-26T12:00:17;100105.66;;;0.45;100.00
35435;BME280;21556;55.782;37.528;2023-01-26T12:02:51;100110.41;;;0.53;100.00
35435;BME280;21556;55.782;37.528;2023-01-26T12:05:40;100116.66;;;0.43;100.00
35435;BME280;21556;55.782;37.528;2023-01-26T12:08:16;100117.47;;;0.55;100.00
35435;BME280;21556;55.782;37.528;2023-01-26T12:10:54;100110.59;;;0.56;100.00
35435;BME280;21556;55.782;37.528;2023-01-26T12:13:38;100105.72;;;0.60;100.00
35435;BME280;21556;55.782;37.528;2023-01-26T12:16:14;100112.91;;;0.51;100.00
35435;BME280;21556;55.782;37.528;2023-01-26T12:18:49;100118.81;;;0.63;100.00
35435;BME280;21556;55.782;37.528;2023-01-26T12:21:19;100116.06;;;0.47;100.00
35435;BME280;21556;55.782;37.528;2023-01-26T12:26:21;100118.22;;;0.54;100.00
35435;BME280;21556;55.782;37.528;2023-01-26T12:32:10;100107.72;;;0.92;100.00
35435;BME280;21556;55.782;37.528;2023-01-26T12:34:37;100106.63;;;0.89;100.00
35435;BME280;21556;55.782;37.528;2023-01-26T12:37:19;100100.69;;;0.48;100.00
35435;BME280;21556;55.782;37.528;2023-01-26T12:40:18;100103.34;;;0.91;100.00
35435;BME280;21556;55.782;37.528;2023-01-26T12:45:29;100099.91;;;0.78;100.00
35435;BME280;21556;55.782;37.528;2023-01-26T12:50:50;100100.00;;;0.79;100.00
35435;BME280;21556;55.782;37.528;2023-01-26T12:53:55;100098.78;;;0.87;100.00
35435;BME280;21556;55.782;37.528;2023-01-26T12:56:30;100094.44;;;1.01;100.00
35435;BME280;21556;55.782;37.528;2023-01-26T12:58:59;100094.00;;;0.65;100.00
35435;BME280;21556;55.782;37.528;2023-01-26T13:01:39;100091.59;;;0.68;100.00
35435;BME280;21556;55.782;37.528;2023-01-26T13:04:17;100103.63;;;0.96;100.00
35435;BME280;21556;55.782;37.528;2023-01-26T13:06:43;100095.63;;;1.06;100.00
35435;BME280;21556;55.782;37.528;2023-01-26T13:09:24;100106.41;;;0.99;100.00
35435;BME280;21556;55.782;37.528;2023-01-26T13:11:53;100100.59;;;1.03;100.00
35435;BME280;21556;55.782;37.528;2023-01-26T13:19:53;100104.72;;;1.14;100.00
35435;BME280;21556;55.782;37.528;2023-01-26T13:24:56;100105.81;;;1.18;100.00
35435;BME280;21556;55.782;37.528;2023-01-26T13:27:53;100113.53;;;1.03;100.00
35435;BME280;21556;55.782;37.528;2023-01-26T13:35:21;100103.91;;;1.15;100.00
35435;BME280;21556;55.782;37.528;2023-01-26T13:40:31;100105.72;;;1.16;100.00
35435;BME280;21556;55.782;37.528;2023-01-26T13:43:16;100103.63;;;0.96;100.00
35435;BME280;21556;55.782;37.528;2023-01-26T13:46:14;100099.16;;;0.93;100.00
35435;BME280;21556;55.782;37.528;2023-01-26T13:48:48;100103.91;;;1.15;100.00
35435;BME280;21556;55.782;37.528;2023-01-26T13:51:27;100107.38;;;1.16;100.00
35435;BME280;21556;55.782;37.528;2023-01-26T13:53:57;100100.66;;;1.33;100.00
35435;BME280;21556;55.782;37.528;2023-01-26T13:58:52;100108.59;;;1.36;100.00
35435;BME280;21556;55.782;37.528;2023-01-26T14:01:19;100113.81;;;1.08;100.00
35435;BME280;21556;55.782;37.528;2023-01-26T14:03:45;100100.38;;;0.85;100.00
35435;BME280;21556;55.782;37.528;2023-01-26T14:06:19;100104.72;;;1.14;100.00
35435;BME280;21556;55.782;37.528;2023-01-26T14:08:54;100101.47;;;1.32;100.00
35435;BME280;21556;55.782;37.528;2023-01-26T14:11:26;100106.00;;;1.21;100.00